createdAt,value
2023-03-04T00:01:26.122Z,3.83
2023-03-04T00:03:54.856Z,3.87
2023-03-04T00:06:22.959Z,3.92
2023-03-04T00:08:51.200Z,3.94
2023-03-04T00:11:19.975Z,3.93
2023-03-04T00:13:48.708Z,3.88
2023-03-04T00:16:16.859Z,3.84
2023-03-04T00:18:45.034Z,3.74
2023-03-04T00:21:13.016Z,3.64
2023-03-04T00:23:42.032Z,3.63
2023-03-04T00:26:10.140Z,3.65
2023-03-04T00:28:40.033Z,3.67
2023-03-04T00:31:10.460Z,3.73
2023-03-04T00:33:38.756Z,3.77
2023-03-04T00:36:07.547Z,3.80
2023-03-04T00:38:35.733Z,3.81
2023-03-04T00:41:03.896Z,3.85
2023-03-04T00:43:33.192Z,3.89
2023-03-04T00:46:01.372Z,3.89
2023-03-04T00:48:33.550Z,3.89
2023-03-04T00:51:01.903Z,3.91
2023-03-04T00:53:29.899Z,3.93
2023-03-04T00:55:58.019Z,3.90
2023-03-04T00:58:26.298Z,3.85
2023-03-04T01:00:55.145Z,3.80
2023-03-04T01:03:24.600Z,3.76
2023-03-04T01:05:53.509Z,3.67
2023-03-04T01:08:21.697Z,3.57
2023-03-04T01:10:49.693Z,3.52
2023-03-04T01:13:18.959Z,3.52
2023-03-04T01:15:47.012Z,3.53
2023-03-04T01:18:15.932Z,3.56
2023-03-04T01:20:44.204Z,3.54
2023-03-04T01:23:12.269Z,3.46
2023-03-04T01:25:40.445Z,3.46
2023-03-04T01:28:08.442Z,3.44
2023-03-04T01:30:36.438Z,3.39
2023-03-04T01:33:05.931Z,3.37
2023-03-04T01:35:36.636Z,3.29
2023-03-04T01:38:05.272Z,3.24
2023-03-04T01:40:33.418Z,3.16
2023-03-04T01:43:01.469Z,3.01
2023-03-04T01:45:29.586Z,2.85
2023-03-04T01:47:58.102Z,2.82
2023-03-04T01:50:33.034Z,2.85
2023-03-04T01:53:03.358Z,2.90
2023-03-04T01:55:32.170Z,2.95
2023-03-04T01:58:00.298Z,3.00
2023-03-04T02:00:32.919Z,3.02
2023-03-04T02:03:11.420Z,2.92
2023-03-04T02:05:45.514Z,2.79
2023-03-04T02:08:13.757Z,2.75
2023-03-04T02:10:45.158Z,2.76
2023-03-04T02:13:13.168Z,2.77
2023-03-04T02:15:42.538Z,2.78
2023-03-04T02:18:24.133Z,2.83
2023-03-04T02:20:54.944Z,2.85
2023-03-04T02:23:38.435Z,2.84
2023-03-04T02:26:09.773Z,2.86
2023-03-04T02:28:37.922Z,2.91
2023-03-04T02:31:06.159Z,2.94
2023-03-04T02:33:34.244Z,2.97
2023-03-04T02:36:02.248Z,2.98
2023-03-04T02:38:30.539Z,2.97
2023-03-04T02:40:58.841Z,2.97
2023-03-04T02:43:26.833Z,2.96
2023-03-04T02:45:56.779Z,2.98
2023-03-04T02:48:25.160Z,2.99
2023-03-04T02:50:53.704Z,2.97
2023-03-04T02:53:22.509Z,2.97
2023-03-04T02:55:50.901Z,2.94
2023-03-04T02:58:22.129Z,2.89
2023-03-04T03:00:53.153Z,2.83
2023-03-04T03:03:21.198Z,2.77
2023-03-04T03:05:49.942Z,2.70
2023-03-04T03:08:18.917Z,2.64
2023-03-04T03:10:50.377Z,2.54
2023-03-04T03:13:19.420Z,2.44
2023-03-04T03:15:50.046Z,2.42
2023-03-04T03:18:18.388Z,2.46
2023-03-04T03:20:46.845Z,2.55
2023-03-04T03:23:15.036Z,2.64
2023-03-04T03:25:43.159Z,2.73
2023-03-04T03:28:11.207Z,2.80
2023-03-04T03:30:39.517Z,2.87
2023-03-04T03:33:08.037Z,2.93
2023-03-04T03:35:38.428Z,3.00
2023-03-04T03:38:06.941Z,3.04
2023-03-04T03:40:37.001Z,3.10
2023-03-04T03:43:05.903Z,3.14
2023-03-04T03:45:33.841Z,3.18
2023-03-04T03:48:02.066Z,3.21
2023-03-04T03:50:30.366Z,3.23
2023-03-04T03:52:58.628Z,3.25
2023-03-04T03:55:26.951Z,3.26
2023-03-04T03:57:55.024Z,3.28
2023-03-04T04:00:23.397Z,3.28
2023-03-04T04:02:53.659Z,3.29
2023-03-04T04:05:21.766Z,3.29
2023-03-04T04:07:50.383Z,3.29
2023-03-04T04:10:20.554Z,3.30
2023-03-04T04:12:48.499Z,3.30
2023-03-04T04:15:17.954Z,3.29
2023-03-04T04:17:46.428Z,3.27
2023-03-04T04:20:14.425Z,3.27
2023-03-04T04:22:42.986Z,3.27
2023-03-04T04:25:11.075Z,3.29
2023-03-04T04:27:39.533Z,3.28
2023-03-04T04:30:08.247Z,3.26
2023-03-04T04:32:36.339Z,3.26
2023-03-04T04:35:05.435Z,3.25
2023-03-04T04:37:33.561Z,3.24
2023-03-04T04:40:02.888Z,3.25
2023-03-04T04:42:30.947Z,3.25
2023-03-04T04:45:00.859Z,3.26
2023-03-04T04:47:29.331Z,3.27
2023-03-04T04:49:57.429Z,3.29
2023-03-04T04:52:25.693Z,3.29
2023-03-04T04:54:53.783Z,3.31
2023-03-04T04:57:21.803Z,3.32
2023-03-04T04:59:49.881Z,3.35
2023-03-04T05:02:19.848Z,3.38
2023-03-04T05:04:47.784Z,3.43
2023-03-04T05:07:15.805Z,3.48
2023-03-04T05:09:43.994Z,3.52
2023-03-04T05:12:12.270Z,3.55
2023-03-04T05:14:43.380Z,3.58
2023-03-04T05:17:11.488Z,3.59
2023-03-04T05:19:39.473Z,3.60
2023-03-04T05:22:08.466Z,3.64
2023-03-04T05:24:36.664Z,3.66
2023-03-04T05:27:04.654Z,3.74
2023-03-04T05:29:32.603Z,3.84
2023-03-04T05:32:00.668Z,3.96
2023-03-04T05:34:28.924Z,4.07
2023-03-04T05:36:56.995Z,4.16
2023-03-04T05:39:25.273Z,4.24
2023-03-04T05:41:53.474Z,4.32
2023-03-04T05:44:22.237Z,4.41
2023-03-04T05:46:50.365Z,4.50
2023-03-04T05:49:23.908Z,4.60
2023-03-04T05:51:51.914Z,4.70
2023-03-04T05:54:20.067Z,4.79
2023-03-04T05:56:48.323Z,4.83
2023-03-04T05:59:20.505Z,4.89
2023-03-04T06:01:48.544Z,4.96
2023-03-04T06:04:17.241Z,5.01
2023-03-04T06:06:47.468Z,5.08
2023-03-04T06:09:16.873Z,5.11
2023-03-04T06:11:44.851Z,5.16
2023-03-04T06:14:17.806Z,5.22
2023-03-04T06:16:49.562Z,5.22
2023-03-04T06:19:17.658Z,5.19
2023-03-04T06:21:47.215Z,5.17
2023-03-04T06:24:15.446Z,5.19
2023-03-04T06:26:43.512Z,5.20
2023-03-04T06:29:11.687Z,5.19
2023-03-04T06:31:41.938Z,5.18
2023-03-04T06:34:12.085Z,5.23
2023-03-04T06:36:40.035Z,5.30
2023-03-04T06:39:12.309Z,5.35
2023-03-04T06:41:40.747Z,5.34
2023-03-04T06:44:08.797Z,5.27
2023-03-04T06:46:38.302Z,5.19
2023-03-04T06:49:08.048Z,5.12
2023-03-04T06:51:36.341Z,5.07
2023-03-04T06:54:05.072Z,4.98
2023-03-04T06:56:33.772Z,4.90
2023-03-04T06:59:02.054Z,4.85
2023-03-04T07:01:30.127Z,4.85
2023-03-04T07:03:58.289Z,4.92
2023-03-04T07:06:27.260Z,5.00
2023-03-04T07:08:55.855Z,5.05
2023-03-04T07:11:24.023Z,5.09
2023-03-04T07:13:52.096Z,5.13
2023-03-04T07:16:22.577Z,5.21
2023-03-04T07:18:51.524Z,5.33
2023-03-04T07:21:25.392Z,5.42
2023-03-04T07:23:53.485Z,5.47
2023-03-04T07:26:21.594Z,5.50
2023-03-04T07:28:49.995Z,5.50
2023-03-04T07:31:23.768Z,5.48
2023-03-04T07:33:51.935Z,5.43
2023-03-04T07:36:20.136Z,5.43
2023-03-04T07:38:49.321Z,5.46
2023-03-04T07:41:17.472Z,5.45
2023-03-04T07:43:45.555Z,5.47
2023-03-04T07:46:13.633Z,5.50
2023-03-04T07:48:42.739Z,5.52
2023-03-04T07:51:13.661Z,5.52
2023-03-04T07:53:42.085Z,5.51
2023-03-04T07:56:12.383Z,5.50
2023-03-04T07:58:40.583Z,5.49
2023-03-04T08:01:10.605Z,5.54
2023-03-04T08:03:38.849Z,5.62
2023-03-04T08:06:08.438Z,5.72
2023-03-04T08:08:36.689Z,5.80
2023-03-04T08:11:09.286Z,5.82
2023-03-04T08:13:38.038Z,5.75
2023-03-04T08:16:18.651Z,5.68
2023-03-04T08:18:48.917Z,5.68
2023-03-04T08:21:19.362Z,5.70
2023-03-04T08:23:50.195Z,5.71
2023-03-04T08:26:25.994Z,5.68
2023-03-04T08:28:54.691Z,5.63
2023-03-04T08:31:22.998Z,5.58
2023-03-04T08:33:53.041Z,5.55
2023-03-04T08:36:21.058Z,5.52
2023-03-04T08:38:49.558Z,5.51
2023-03-04T08:41:18.073Z,5.51
2023-03-04T08:43:46.119Z,5.48
2023-03-04T08:46:14.622Z,5.45
2023-03-04T08:48:42.543Z,5.38
2023-03-04T08:51:12.344Z,5.34
2023-03-04T08:53:40.498Z,5.33
2023-03-04T08:56:09.879Z,5.35
2023-03-04T08:58:38.604Z,5.38
2023-03-04T09:01:09.547Z,5.39
2023-03-04T09:03:46.089Z,5.38
2023-03-04T09:06:15.339Z,5.38
2023-03-04T09:08:44.985Z,5.41
2023-03-04T09:11:17.566Z,5.41
2023-03-04T09:13:46.123Z,5.35
2023-03-04T09:16:16.608Z,5.29
2023-03-04T09:18:45.008Z,5.27
2023-03-04T09:21:13.078Z,5.23
2023-03-04T09:23:41.618Z,5.20
2023-03-04T09:26:23.594Z,5.17
2023-03-04T09:28:56.317Z,5.16
2023-03-04T09:31:24.742Z,5.19
2023-03-04T09:33:53.156Z,5.23
2023-03-04T09:36:21.543Z,5.23
2023-03-04T09:38:50.750Z,5.21
2023-03-04T09:41:22.091Z,5.20
2023-03-04T09:43:50.195Z,5.21
2023-03-04T09:46:38.416Z,5.22
2023-03-04T09:49:07.542Z,5.28
2023-03-04T09:51:49.173Z,5.36
2023-03-04T09:54:41.890Z,5.45
2023-03-04T09:57:18.799Z,5.57
2023-03-04T09:59:56.832Z,5.68
2023-03-04T10:02:38.418Z,5.74
2023-03-04T10:05:06.559Z,5.79
2023-03-04T10:07:36.659Z,5.89
2023-03-04T10:10:10.810Z,5.99
2023-03-04T10:12:40.409Z,6.08
2023-03-04T10:15:19.070Z,6.13
2023-03-04T10:17:48.407Z,6.19
2023-03-04T10:20:26.983Z,6.21
2023-03-04T10:23:10.522Z,6.24
2023-03-04T10:25:46.757Z,6.27
2023-03-04T10:28:19.023Z,6.33
2023-03-04T10:30:52.996Z,6.41
2023-03-04T10:33:23.873Z,6.49
2023-03-04T10:36:30.547Z,6.56
2023-03-04T10:39:05.557Z,6.63
2023-03-04T10:41:34.088Z,6.70
2023-03-04T10:44:14.476Z,6.77
2023-03-04T10:46:44.205Z,6.85
2023-03-04T10:49:19.472Z,6.90
2023-03-04T10:52:30.754Z,6.93
2023-03-04T10:55:00.653Z,6.94
2023-03-04T10:57:36.850Z,6.93
2023-03-04T11:00:17.171Z,6.91
2023-03-04T11:02:46.695Z,6.91
2023-03-04T11:05:14.865Z,6.91
2023-03-04T11:07:55.149Z,6.91
2023-03-04T11:10:37.573Z,6.91
2023-03-04T11:13:11.634Z,6.93
2023-03-04T11:16:06.155Z,6.96
2023-03-04T11:18:52.580Z,6.98
2023-03-04T11:21:25.177Z,6.99
2023-03-04T11:24:01.689Z,7.03
2023-03-04T11:26:57.696Z,7.03
2023-03-04T11:29:38.966Z,7.04
2023-03-04T11:32:11.905Z,7.07
2023-03-04T11:34:44.589Z,7.07
2023-03-04T11:37:28.064Z,7.08
2023-03-04T11:40:08.892Z,7.10
2023-03-04T11:43:27.474Z,7.12
2023-03-04T11:46:37.563Z,7.13
2023-03-04T11:49:08.399Z,7.12
2023-03-04T11:51:39.883Z,7.15
2023-03-04T11:54:25.370Z,7.14
2023-03-04T11:56:57.368Z,7.16
2023-03-04T11:59:43.895Z,7.21
2023-03-04T12:02:15.351Z,7.27
2023-03-04T12:04:46.479Z,7.34
2023-03-04T12:07:52.734Z,7.39
2023-03-04T12:10:48.035Z,7.42
2023-03-04T12:13:21.137Z,7.42
2023-03-04T12:16:31.546Z,7.42
2023-03-04T12:19:24.404Z,7.41
2023-03-04T12:22:11.679Z,7.36
2023-03-04T12:25:15.180Z,7.34
2023-03-04T12:27:53.914Z,7.36
2023-03-04T12:31:00.026Z,7.40
2023-03-04T12:33:48.928Z,7.43
2023-03-04T12:36:17.107Z,7.42
2023-03-04T12:39:00.663Z,7.42
2023-03-04T12:41:37.956Z,7.44
2023-03-04T12:44:12.606Z,7.48
2023-03-04T12:46:46.447Z,7.53
2023-03-04T12:49:35.452Z,7.57
2023-03-04T12:52:23.387Z,7.60
2023-03-04T12:54:57.848Z,7.63
2023-03-04T12:57:27.904Z,7.67
2023-03-04T13:00:00.713Z,7.70
2023-03-04T13:02:55.146Z,7.73
2023-03-04T13:05:26.759Z,7.75
2023-03-04T13:08:04.595Z,7.75
2023-03-04T13:10:36.908Z,7.74
2023-03-04T13:13:05.046Z,7.72
2023-03-04T13:15:35.278Z,7.71
2023-03-04T13:18:33.407Z,7.69
2023-03-04T13:21:13.859Z,7.66
2023-03-04T13:23:42.708Z,7.59
2023-03-04T13:26:21.908Z,7.48
2023-03-04T13:29:11.359Z,7.38
2023-03-04T13:32:11.933Z,7.25
2023-03-04T13:34:53.876Z,7.14
2023-03-04T13:37:27.710Z,7.11
2023-03-04T13:40:23.339Z,7.10
2023-03-04T13:42:52.285Z,7.10
2023-03-04T13:45:37.177Z,7.12
2023-03-04T13:48:08.396Z,7.18
2023-03-04T13:50:46.656Z,7.23
2023-03-04T13:53:29.952Z,7.26
2023-03-04T13:56:12.051Z,7.22
2023-03-04T13:58:40.146Z,7.18
2023-03-04T14:01:25.940Z,7.16
2023-03-04T14:03:54.622Z,7.12
2023-03-04T14:06:30.171Z,7.10
2023-03-04T14:08:58.274Z,7.14
2023-03-04T14:11:33.160Z,7.17
2023-03-04T14:14:06.945Z,7.14
2023-03-04T14:16:40.245Z,7.10
2023-03-04T14:19:15.273Z,7.08
2023-03-04T14:21:47.199Z,7.06
2023-03-04T14:24:18.679Z,7.07
2023-03-04T14:26:47.083Z,7.09
2023-03-04T14:29:34.494Z,7.08
2023-03-04T14:32:02.951Z,7.10
2023-03-04T14:34:35.532Z,7.12
2023-03-04T14:37:05.804Z,7.17
2023-03-04T14:39:35.911Z,7.21
2023-03-04T14:42:10.070Z,7.27
2023-03-04T14:44:40.807Z,7.28
2023-03-04T14:47:15.005Z,7.25
2023-03-04T14:49:44.016Z,7.23
2023-03-04T14:52:42.233Z,7.18
2023-03-04T14:55:18.990Z,7.14
2023-03-04T14:57:48.932Z,7.11
2023-03-04T15:00:24.770Z,7.05
2023-03-04T15:03:21.735Z,6.96
2023-03-04T15:05:52.454Z,6.90
2023-03-04T15:08:25.958Z,6.91
2023-03-04T15:11:04.886Z,6.87
2023-03-04T15:13:39.861Z,6.78
2023-03-04T15:16:09.984Z,6.74
2023-03-04T15:18:38.411Z,6.72
2023-03-04T15:21:29.523Z,6.71
2023-03-04T15:23:57.851Z,6.71
2023-03-04T15:26:27.308Z,6.65
2023-03-04T15:28:56.093Z,6.60
2023-03-04T15:31:25.914Z,6.49
2023-03-04T15:33:55.006Z,6.36
2023-03-04T15:36:23.327Z,6.29
2023-03-04T15:38:52.790Z,6.27
2023-03-04T15:41:23.359Z,6.26
2023-03-04T15:43:54.719Z,6.19
2023-03-04T15:46:22.705Z,6.14
2023-03-04T15:48:50.701Z,6.14
2023-03-04T15:51:22.393Z,6.07
2023-03-04T15:53:54.144Z,5.96
2023-03-04T15:56:24.444Z,5.83
2023-03-04T15:58:57.167Z,5.75
2023-03-04T16:01:27.459Z,5.65
2023-03-04T16:03:55.824Z,5.49
2023-03-04T16:06:25.096Z,5.34
2023-03-04T16:08:54.264Z,5.22
2023-03-04T16:11:23.911Z,5.10
2023-03-04T16:13:51.995Z,5.02
2023-03-04T16:16:21.151Z,4.96
2023-03-04T16:18:49.773Z,4.89
2023-03-04T16:21:19.328Z,4.86
2023-03-04T16:23:47.915Z,4.89
2023-03-04T16:26:18.146Z,4.90
2023-03-04T16:28:46.538Z,4.91
2023-03-04T16:31:15.314Z,4.88
2023-03-04T16:33:44.646Z,4.89
2023-03-04T16:36:23.431Z,4.90
2023-03-04T16:38:51.955Z,4.84
2023-03-04T16:41:20.970Z,4.69
2023-03-04T16:43:48.917Z,4.52
2023-03-04T16:46:22.220Z,4.38
2023-03-04T16:48:50.338Z,4.23
2023-03-04T16:51:20.197Z,4.09
2023-03-04T16:53:49.770Z,3.96
2023-03-04T16:56:18.512Z,3.86
2023-03-04T16:58:47.274Z,3.79
2023-03-04T17:01:22.870Z,3.74
2023-03-04T17:03:51.000Z,3.71
2023-03-04T17:06:20.850Z,3.65
2023-03-04T17:08:48.780Z,3.60
2023-03-04T17:11:22.421Z,3.60
2023-03-04T17:13:52.514Z,3.59
2023-03-04T17:16:21.500Z,3.53
2023-03-04T17:18:50.488Z,3.48
2023-03-04T17:21:23.700Z,3.45
2023-03-04T17:23:52.110Z,3.49
2023-03-04T17:26:22.793Z,3.54
2023-03-04T17:28:51.678Z,3.57
2023-03-04T17:31:19.925Z,3.51
2023-03-04T17:33:48.053Z,3.49
2023-03-04T17:36:16.590Z,3.48
2023-03-04T17:38:44.576Z,3.47
2023-03-04T17:41:16.185Z,3.47
2023-03-04T17:43:45.739Z,3.43
2023-03-04T17:46:14.887Z,3.39
2023-03-04T17:48:43.422Z,3.42
2023-03-04T17:51:12.624Z,3.45
2023-03-04T17:53:41.407Z,3.49
2023-03-04T17:56:11.296Z,3.50
2023-03-04T17:58:39.907Z,3.47
2023-03-04T18:01:18.956Z,3.46
2023-03-04T18:03:47.913Z,3.44
2023-03-04T18:06:17.348Z,3.38
2023-03-04T18:08:49.342Z,3.31
2023-03-04T18:11:18.302Z,3.29
2023-03-04T18:13:46.586Z,3.31
2023-03-04T18:16:16.651Z,3.37
2023-03-04T18:18:45.676Z,3.47
2023-03-04T18:21:14.809Z,3.59
2023-03-04T18:23:43.247Z,3.68
2023-03-04T18:26:11.932Z,3.75
2023-03-04T18:28:39.839Z,3.72
2023-03-04T18:31:08.063Z,3.59
2023-03-04T18:33:37.893Z,3.51
2023-03-04T18:36:08.185Z,3.50
2023-03-04T18:38:36.182Z,3.50
2023-03-04T18:41:06.400Z,3.46
2023-03-04T18:43:35.016Z,3.44
2023-03-04T18:46:06.925Z,3.46
2023-03-04T18:48:41.832Z,3.34
2023-03-04T18:51:09.876Z,3.15
2023-03-04T18:53:38.508Z,3.06
2023-03-04T18:56:15.275Z,3.04
2023-03-04T18:58:44.366Z,3.06
2023-03-04T19:01:12.850Z,3.02
2023-03-04T19:03:40.973Z,3.02
2023-03-04T19:06:09.294Z,3.00
2023-03-04T19:08:41.615Z,2.98
2023-03-04T19:11:10.089Z,2.97
2023-03-04T19:13:38.268Z,2.99
2023-03-04T19:16:07.206Z,3.02
2023-03-04T19:18:35.324Z,3.01
2023-03-04T19:21:05.323Z,3.01
2023-03-04T19:23:34.925Z,3.06
2023-03-04T19:26:03.788Z,3.10
2023-03-04T19:28:32.225Z,3.10
2023-03-04T19:31:05.713Z,3.07
2023-03-04T19:33:36.687Z,3.07
2023-03-04T19:36:05.856Z,3.07
2023-03-04T19:38:34.127Z,3.07
2023-03-04T19:41:12.442Z,3.11
2023-03-04T19:43:40.799Z,3.15
2023-03-04T19:46:10.076Z,3.20
2023-03-04T19:48:38.773Z,3.22
2023-03-04T19:51:15.568Z,3.20
2023-03-04T19:53:43.587Z,3.26
2023-03-04T19:56:11.609Z,3.33
2023-03-04T19:58:40.102Z,3.33
2023-03-04T20:01:20.017Z,3.31
2023-03-04T20:03:48.504Z,3.34
2023-03-04T20:06:16.708Z,3.39
2023-03-04T20:08:44.681Z,3.44
2023-03-04T20:11:12.863Z,3.47
2023-03-04T20:13:46.077Z,3.48
2023-03-04T20:16:15.084Z,3.43
2023-03-04T20:18:43.174Z,3.37
2023-03-04T20:21:17.704Z,3.34
2023-03-04T20:23:46.048Z,3.36
2023-03-04T20:26:14.184Z,3.39
2023-03-04T20:28:51.114Z,3.42
2023-03-04T20:31:23.400Z,3.43
2023-03-04T20:33:52.738Z,3.52
2023-03-04T20:36:22.630Z,3.62
2023-03-04T20:38:57.977Z,3.69
2023-03-04T20:41:30.661Z,3.71
2023-03-04T20:44:02.615Z,3.73
2023-03-04T20:46:32.340Z,3.75
2023-03-04T20:49:08.421Z,3.78
2023-03-04T20:51:36.980Z,3.81
2023-03-04T20:54:05.365Z,3.87
2023-03-04T20:56:33.493Z,3.91
2023-03-04T20:59:03.745Z,3.91
2023-03-04T21:01:32.077Z,3.94
2023-03-04T21:04:00.709Z,3.95
2023-03-04T21:06:29.293Z,3.99
2023-03-04T21:09:04.125Z,4.01
2023-03-04T21:11:32.608Z,3.98
2023-03-04T21:14:00.776Z,3.92
2023-03-04T21:16:30.158Z,3.89
2023-03-04T21:18:58.376Z,3.82
2023-03-04T21:21:31.112Z,3.71
2023-03-04T21:23:59.309Z,3.64
2023-03-04T21:26:27.493Z,3.65
2023-03-04T21:28:55.555Z,3.67
2023-03-04T21:31:25.629Z,3.66
2023-03-04T21:33:54.618Z,3.70
2023-03-04T21:36:23.395Z,3.69
2023-03-04T21:38:51.759Z,3.64
2023-03-04T21:41:22.277Z,3.64
2023-03-04T21:43:51.375Z,3.66
2023-03-04T21:46:19.402Z,3.61
2023-03-04T21:48:48.322Z,3.56
2023-03-04T21:51:18.563Z,3.52
2023-03-04T21:53:47.387Z,3.48
2023-03-04T21:56:16.168Z,3.46
2023-03-04T21:58:45.860Z,3.48
2023-03-04T22:01:19.050Z,3.52
2023-03-04T22:03:51.616Z,3.53
2023-03-04T22:06:22.147Z,3.58
2023-03-04T22:08:55.019Z,3.64
2023-03-04T22:11:23.801Z,3.66
2023-03-04T22:13:55.462Z,3.70
2023-03-04T22:16:27.501Z,3.73
2023-03-04T22:18:55.673Z,3.75
2023-03-04T22:21:23.800Z,3.77
2023-03-04T22:23:52.973Z,3.81
2023-03-04T22:26:26.884Z,3.85
2023-03-04T22:28:54.880Z,3.82
2023-03-04T22:31:30.729Z,3.78
2023-03-04T22:34:03.007Z,3.77
2023-03-04T22:36:36.000Z,3.79
2023-03-04T22:39:05.238Z,3.79
2023-03-04T22:41:35.112Z,3.77
2023-03-04T22:44:03.280Z,3.77
2023-03-04T22:46:36.370Z,3.78
2023-03-04T22:49:11.888Z,3.77
2023-03-04T22:51:44.014Z,3.75
2023-03-04T22:54:14.182Z,3.69
2023-03-04T22:56:42.757Z,3.64
2023-03-04T22:59:10.950Z,3.63
2023-03-04T23:01:39.957Z,3.61
2023-03-04T23:04:08.005Z,3.58
2023-03-04T23:06:37.799Z,3.52
2023-03-04T23:09:08.256Z,3.48
2023-03-04T23:11:36.967Z,3.39
2023-03-04T23:14:07.358Z,3.32
2023-03-04T23:16:44.548Z,3.27
2023-03-04T23:19:14.625Z,3.24
2023-03-04T23:21:42.771Z,3.24
2023-03-04T23:24:11.172Z,3.11
2023-03-04T23:26:40.118Z,2.93
2023-03-04T23:29:09.408Z,2.88
2023-03-04T23:31:38.294Z,2.90
2023-03-04T23:34:07.877Z,2.87
2023-03-04T23:36:36.493Z,2.85
2023-03-04T23:39:05.691Z,2.89
2023-03-04T23:41:35.117Z,2.95
2023-03-04T23:44:03.475Z,2.99
2023-03-04T23:46:34.500Z,3.03
2023-03-04T23:49:02.729Z,3.09
2023-03-04T23:51:30.925Z,3.13
2023-03-04T23:53:59.443Z,3.12
2023-03-04T23:56:29.407Z,3.10
2023-03-04T23:58:58.556Z,3.12
